Time;durP1;ratioP1;P1;durP2;ratioP2;P2;SDS_P1;SDS_P2;PMS_P1;PMS_P2;Temp;Humidity;BMP_temperature;BMP_pressure;BME280_temperature;BME280_humidity;BME280_pressure;Samples;Min_cycle;Max_cycle;Signal;HPM_P1;HPM_P2
2022/04/13 00:00:34;;;;;;;6.35;2.45;;;;;;;;;;5000419;28;20036;-85
2022/04/13 00:03:00;;;;;;;6.63;2.78;;;;;;;;;;5015450;28;20052;-82
2022/04/13 00:05:25;;;;;;;7.03;2.70;;;;;;;;;;5001039;28;20498;-82
2022/04/13 00:07:51;;;;;;;5.78;2.47;;;;;;;;;;5006999;28;20453;-86
2022/04/13 00:10:16;;;;;;;5.53;2.67;;;;;;;;;;5002870;28;20486;-85
2022/04/13 00:12:42;;;;;;;4.30;2.30;;;;;;;;;;5000675;28;20112;-87
2022/04/13 00:15:08;;;;;;;6.07;2.80;;;;;;;;;;5004380;28;20125;-86
2022/04/13 00:17:36;;;;;;;7.28;3.20;;;;;;;;;;5002519;28;20023;-84
2022/04/13 00:20:02;;;;;;;7.28;2.90;;;;;;;;;;5016338;28;20034;-82
2022/04/13 00:22:28;;;;;;;6.63;2.65;;;;;;;;;;5003558;28;20053;-87
2022/04/13 00:24:53;;;;;;;6.10;2.72;;;;;;;;;;5000975;28;20064;-87
2022/04/13 00:27:18;;;;;;;7.28;3.55;;;;;;;;;;5005255;28;20041;-81
2022/04/13 00:29:44;;;;;;;7.05;2.80;;;;;;;;;;5001986;28;20042;-80
2022/04/13 00:32:09;;;;;;;6.30;2.60;;;;;;;;;;4998828;28;20028;-85
2022/04/13 00:34:34;;;;;;;7.05;3.00;;;;;;;;;;5000814;28;20390;-82
2022/04/13 00:37:00;;;;;;;5.40;2.50;;;;;;;;;;5001256;28;20079;-82
2022/04/13 00:39:27;;;;;;;5.95;2.70;;;;;;;;;;5001288;28;20490;-86
2022/04/13 00:41:57;;;;;;;6.70;3.10;;;;;;;;;;5003579;28;20046;-81
2022/04/13 00:44:22;;;;;;;5.70;2.45;;;;;;;;;;5002054;28;20434;-85
2022/04/13 00:46:47;;;;;;;6.53;3.10;;;;;;;;;;5001259;28;20029;-86
2022/04/13 00:49:14;;;;;;;8.70;3.63;;;;;;;;;;5003523;28;20033;-80
2022/04/13 00:51:39;;;;;;;6.40;3.22;;;;;;;;;;5001370;28;20799;-81
2022/04/13 00:54:06;;;;;;;5.68;2.90;;;;;;;;;;5002828;28;20388;-85
2022/04/13 00:56:35;;;;;;;5.63;2.97;;;;;;;;;;5002204;28;20037;-81
2022/04/13 00:59:06;;;;;;;6.75;3.15;;;;;;;;;;5004290;28;20045;-86
2022/04/13 01:01:34;;;;;;;7.45;3.15;;;;;;;;;;5016499;28;20076;-84
2022/04/13 01:04:00;;;;;;;6.47;3.15;;;;;;;;;;4999788;28;20510;-83
2022/04/13 01:06:27;;;;;;;8.20;3.20;;;;;;;;;;4997201;28;20033;-87
2022/04/13 01:08:53;;;;;;;5.78;2.97;;;;;;;;;;4997742;28;20030;-85
2022/04/13 01:11:19;;;;;;;5.60;3.00;;;;;;;;;;5000894;28;20599;-80
2022/04/13 01:13:47;;;;;;;5.65;3.00;;;;;;;;;;5002426;28;20065;-86
2022/04/13 01:16:13;;;;;;;7.13;3.13;;;;;;;;;;5002730;28;20099;-81
2022/04/13 01:18:38;;;;;;;8.80;3.30;;;;;;;;;;4998316;28;20034;-82
2022/04/13 01:21:05;;;;;;;6.40;3.40;;;;;;;;;;5000005;28;20489;-88
2022/04/13 01:23:31;;;;;;;7.55;3.20;;;;;;;;;;5000720;28;20057;-86
2022/04/13 01:25:56;;;;;;;9.93;3.22;;;;;;;;;;5000566;28;20462;-80
2022/04/13 01:28:23;;;;;;;6.22;3.50;;;;;;;;;;5000577;28;20037;-86
2022/04/13 01:30:49;;;;;;;9.65;3.80;;;;;;;;;;5000314;28;20029;-81
2022/04/13 01:33:15;;;;;;;6.82;3.47;;;;;;;;;;4999135;28;20034;-85
2022/04/13 01:35:40;;;;;;;6.47;3.35;;;;;;;;;;4997505;28;20081;-86
2022/04/13 01:38:06;;;;;;;7.15;3.78;;;;;;;;;;5003452;28;20100;-84
2022/04/13 01:40:32;;;;;;;8.20;3.85;;;;;;;;;;4997903;28;20119;-81
2022/04/13 01:42:58;;;;;;;5.63;3.85;;;;;;;;;;4999953;28;20371;-80
2022/04/13 01:45:24;;;;;;;9.00;4.55;;;;;;;;;;4999269;28;20037;-85
2022/04/13 01:47:50;;;;;;;6.03;3.63;;;;;;;;;;5001714;28;20058;-87
2022/04/13 01:50:17;;;;;;;8.65;4.40;;;;;;;;;;4999894;28;20092;-84
2022/04/13 01:52:44;;;;;;;7.63;4.38;;;;;;;;;;4996375;28;20037;-82
2022/04/13 01:55:10;;;;;;;6.80;4.32;;;;;;;;;;5001041;28;20064;-80
2022/04/13 01:57:36;;;;;;;7.28;4.47;;;;;;;;;;5001603;28;20057;-79
2022/04/13 02:00:07;;;;;;;8.70;4.28;;;;;;;;;;5002201;28;20033;-82
2022/04/13 02:02:33;;;;;;;8.52;4.47;;;;;;;;;;5000981;28;20103;-81
2022/04/13 02:04:59;;;;;;;6.82;4.18;;;;;;;;;;5001841;28;20044;-87
2022/04/13 02:07:26;;;;;;;6.55;4.00;;;;;;;;;;5001556;28;20117;-85
2022/04/13 02:09:51;;;;;;;7.82;4.20;;;;;;;;;;5004926;28;20412;-81
2022/04/13 02:12:17;;;;;;;7.00;4.65;;;;;;;;;;5006020;28;20034;-85
2022/04/13 02:14:42;;;;;;;7.28;4.28;;;;;;;;;;5006216;28;20036;-86
2022/04/13 02:17:07;;;;;;;8.00;4.68;;;;;;;;;;5005039;28;20330;-86
2022/04/13 02:19:33;;;;;;;8.75;4.38;;;;;;;;;;5006302;28;20360;-82
2022/04/13 02:21:58;;;;;;;6.30;4.13;;;;;;;;;;5001585;28;20528;-82
2022/04/13 02:24:24;;;;;;;9.27;4.70;;;;;;;;;;5006318;28;20038;-86
2022/04/13 02:26:49;;;;;;;8.32;4.63;;;;;;;;;;5005398;28;20478;-85
2022/04/13 02:29:14;;;;;;;7.40;4.40;;;;;;;;;;5006220;28;20482;-87
2022/04/13 02:31:40;;;;;;;6.95;4.47;;;;;;;;;;5006530;28;20095;-82
2022/04/13 02:34:06;;;;;;;8.80;4.07;;;;;;;;;;5003441;28;20037;-86
2022/04/13 02:36:32;;;;;;;10.80;4.80;;;;;;;;;;5007936;28;20104;-82
2022/04/13 02:38:58;;;;;;;7.82;4.75;;;;;;;;;;5003118;28;20116;-82
2022/04/13 02:41:23;;;;;;;7.28;5.13;;;;;;;;;;5005207;28;20018;-81
2022/04/13 02:43:49;;;;;;;9.23;4.63;;;;;;;;;;5000588;28;20045;-86
2022/04/13 02:46:14;;;;;;;10.90;5.22;;;;;;;;;;5002409;28;20037;-85
2022/04/13 02:48:39;;;;;;;8.38;5.03;;;;;;;;;;5003585;28;20117;-86
2022/04/13 02:51:05;;;;;;;9.60;5.28;;;;;;;;;;5001698;28;20080;-82
2022/04/13 02:53:31;;;;;;;8.60;5.00;;;;;;;;;;5001291;28;20382;-86
2022/04/13 02:55:57;;;;;;;9.57;5.18;;;;;;;;;;5003033;28;20026;-84
2022/04/13 02:58:23;;;;;;;10.68;5.38;;;;;;;;;;5004990;28;20490;-85
2022/04/13 03:00:48;;;;;;;10.25;5.88;;;;;;;;;;5002308;28;20061;-86
2022/04/13 03:03:13;;;;;;;7.85;4.63;;;;;;;;;;5002583;28;20038;-85
2022/04/13 03:05:39;;;;;;;8.32;5.68;;;;;;;;;;5002936;28;20040;-80
2022/04/13 03:08:06;;;;;;;7.30;5.07;;;;;;;;;;5003205;28;20060;-86
2022/04/13 03:10:31;;;;;;;9.75;6.15;;;;;;;;;;5004663;28;20037;-82
2022/04/13 03:12:57;;;;;;;9.23;5.63;;;;;;;;;;5005268;28;20037;-85
2022/04/13 03:15:25;;;;;;;9.40;6.28;;;;;;;;;;5001906;28;20112;-80
2022/04/13 03:17:53;;;;;;;9.88;5.80;;;;;;;;;;5000601;28;20037;-83
2022/04/13 03:20:18;;;;;;;9.77;6.35;;;;;;;;;;5015938;28;20033;-84
2022/04/13 03:22:45;;;;;;;8.95;6.03;;;;;;;;;;5003475;28;20033;-84
2022/04/13 03:25:11;;;;;;;8.02;5.75;;;;;;;;;;5002986;28;20079;-84
2022/04/13 03:27:37;;;;;;;9.50;6.50;;;;;;;;;;5005876;28;20379;-84
2022/04/13 03:30:04;;;;;;;10.88;7.07;;;;;;;;;;5002288;28;20069;-83
2022/04/13 03:32:37;;;;;;;10.75;6.75;;;;;;;;;;5001886;28;20448;-81
2022/04/13 03:35:03;;;;;;;7.57;5.82;;;;;;;;;;5003594;28;20219;-81
2022/04/13 03:37:29;;;;;;;10.85;6.57;;;;;;;;;;5002750;28;20458;-81
2022/04/13 03:39:54;;;;;;;7.72;5.95;;;;;;;;;;5002976;28;20140;-85
2022/04/13 03:42:19;;;;;;;9.73;6.60;;;;;;;;;;5000721;28;20486;-83
2022/04/13 03:44:45;;;;;;;10.57;6.75;;;;;;;;;;5002650;28;20072;-82
2022/04/13 03:47:10;;;;;;;11.35;6.90;;;;;;;;;;5003650;28;20060;-82
2022/04/13 03:49:35;;;;;;;12.10;6.22;;;;;;;;;;5003694;28;20493;-87
2022/04/13 03:52:01;;;;;;;11.07;6.43;;;;;;;;;;5003107;28;20406;-86
2022/04/13 03:54:26;;;;;;;9.27;5.78;;;;;;;;;;5004660;28;20394;-88
2022/04/13 03:56:53;;;;;;;9.68;6.13;;;;;;;;;;5003019;28;20068;-81
2022/04/13 03:59:20;;;;;;;9.00;5.75;;;;;;;;;;5002856;28;20480;-81
2022/04/13 04:01:46;;;;;;;10.55;6.13;;;;;;;;;;5001043;28;20559;-83
2022/04/13 04:04:11;;;;;;;11.60;5.70;;;;;;;;;;5003700;28;20045;-82
2022/04/13 04:06:37;;;;;;;8.70;5.32;;;;;;;;;;5001450;28;20496;-86
2022/04/13 04:09:02;;;;;;;7.75;4.97;;;;;;;;;;5004616;28;20116;-81
2022/04/13 04:11:28;;;;;;;8.50;5.80;;;;;;;;;;5001081;28;20039;-87
2022/04/13 04:13:53;;;;;;;9.25;5.63;;;;;;;;;;5001590;28;20029;-87
2022/04/13 04:16:18;;;;;;;9.43;5.68;;;;;;;;;;5000444;28;20030;-82
2022/04/13 04:18:45;;;;;;;8.98;5.40;;;;;;;;;;5004024;28;20026;-86
2022/04/13 04:21:11;;;;;;;8.95;5.38;;;;;;;;;;5004001;28;20426;-81
2022/04/13 04:23:36;;;;;;;8.80;5.72;;;;;;;;;;4998953;28;20396;-87
2022/04/13 04:26:01;;;;;;;10.05;5.38;;;;;;;;;;5001722;28;20529;-88
2022/04/13 04:28:27;;;;;;;7.95;5.32;;;;;;;;;;5005021;28;20038;-87
2022/04/13 04:30:52;;;;;;;9.43;5.45;;;;;;;;;;5001834;28;20045;-82
2022/04/13 04:33:17;;;;;;;10.85;5.57;;;;;;;;;;4998708;28;20516;-87
2022/04/13 04:35:47;;;;;;;9.45;5.10;;;;;;;;;;5003320;28;20030;-87
2022/04/13 04:38:13;;;;;;;7.72;4.93;;;;;;;;;;5000838;28;20163;-87
2022/04/13 04:40:39;;;;;;;7.35;5.00;;;;;;;;;;5002176;28;20040;-87
2022/04/13 04:43:04;;;;;;;8.85;5.18;;;;;;;;;;4999464;28;20474;-82
2022/04/13 04:45:30;;;;;;;8.38;5.20;;;;;;;;;;5002742;28;20029;-84
2022/04/13 04:47:57;;;;;;;9.10;5.13;;;;;;;;;;4998895;28;20390;-88
2022/04/13 04:50:23;;;;;;;11.52;6.20;;;;;;;;;;5001010;28;20034;-84
2022/04/13 04:52:49;;;;;;;8.68;5.55;;;;;;;;;;5000083;28;20072;-87
2022/04/13 04:55:16;;;;;;;10.35;6.03;;;;;;;;;;5004481;28;20028;-82
2022/04/13 04:57:42;;;;;;;9.10;5.68;;;;;;;;;;5002893;28;20076;-88
2022/04/13 05:00:11;;;;;;;9.70;5.82;;;;;;;;;;5002040;28;20069;-86
2022/04/13 05:02:37;;;;;;;9.82;5.57;;;;;;;;;;4999633;28;20815;-87
2022/04/13 05:05:04;;;;;;;8.70;5.53;;;;;;;;;;5004063;28;20056;-83
2022/04/13 05:07:29;;;;;;;10.05;5.15;;;;;;;;;;5005134;28;20029;-82
2022/04/13 05:09:55;;;;;;;9.18;5.28;;;;;;;;;;5003046;28;20036;-86
2022/04/13 05:12:20;;;;;;;8.68;5.30;;;;;;;;;;5002545;28;20038;-82
2022/04/13 05:14:45;;;;;;;8.18;5.53;;;;;;;;;;4999056;28;20041;-81
2022/04/13 05:17:11;;;;;;;7.88;5.15;;;;;;;;;;4999295;28;20103;-81
2022/04/13 05:19:36;;;;;;;9.70;5.35;;;;;;;;;;4995311;28;20069;-86
2022/04/13 05:22:02;;;;;;;8.52;5.20;;;;;;;;;;4998028;28;20034;-82
2022/04/13 05:24:28;;;;;;;9.50;5.28;;;;;;;;;;5002140;28;20064;-82
2022/04/13 05:26:53;;;;;;;11.50;5.30;;;;;;;;;;5005731;28;20034;-82
2022/04/13 05:29:21;;;;;;;9.57;6.35;;;;;;;;;;5002528;28;20087;-81
2022/04/13 05:31:46;;;;;;;9.75;5.10;;;;;;;;;;5001882;28;20113;-87
2022/04/13 05:34:12;;;;;;;9.98;5.75;;;;;;;;;;5004465;28;20046;-88
2022/04/13 05:36:37;;;;;;;10.25;5.88;;;;;;;;;;5002798;28;20049;-83
2022/04/13 05:39:03;;;;;;;8.93;5.53;;;;;;;;;;5000200;28;20065;-86
2022/04/13 05:41:28;;;;;;;10.73;5.25;;;;;;;;;;5003645;28;20036;-86
2022/04/13 05:43:53;;;;;;;10.20;4.93;;;;;;;;;;5003148;28;20053;-87
2022/04/13 05:46:19;;;;;;;9.25;5.15;;;;;;;;;;5004392;28;20030;-87
2022/04/13 05:48:45;;;;;;;9.88;5.32;;;;;;;;;;4998885;28;20119;-87
2022/04/13 05:51:10;;;;;;;8.90;5.30;;;;;;;;;;4998489;28;20137;-87
2022/04/13 05:53:36;;;;;;;9.63;5.97;;;;;;;;;;4996965;28;20026;-84
2022/04/13 05:56:02;;;;;;;9.40;5.75;;;;;;;;;;5001261;28;20478;-82
2022/04/13 05:58:28;;;;;;;12.50;5.90;;;;;;;;;;4995728;28;20030;-81
2022/04/13 06:00:54;;;;;;;9.27;5.70;;;;;;;;;;4996523;28;20034;-83
2022/04/13 06:03:21;;;;;;;9.80;5.95;;;;;;;;;;4999023;28;20030;-82
2022/04/13 06:05:46;;;;;;;10.18;6.03;;;;;;;;;;4997852;28;20072;-85
2022/04/13 06:08:13;;;;;;;8.50;5.32;;;;;;;;;;4995054;28;20084;-85
2022/04/13 06:10:38;;;;;;;9.57;5.90;;;;;;;;;;4998730;28;20109;-81
2022/04/13 06:13:04;;;;;;;9.95;5.45;;;;;;;;;;4994723;28;20046;-81
2022/04/13 06:15:31;;;;;;;9.35;5.78;;;;;;;;;;4994068;28;20141;-82
2022/04/13 06:17:56;;;;;;;10.00;5.50;;;;;;;;;;5011163;28;20029;-82
2022/04/13 06:20:22;;;;;;;8.35;5.65;;;;;;;;;;4998241;28;20033;-83
2022/04/13 06:22:48;;;;;;;9.45;5.68;;;;;;;;;;5001863;28;20028;-81
2022/04/13 06:25:13;;;;;;;10.13;6.53;;;;;;;;;;5003580;28;20441;-81
2022/04/13 06:27:44;;;;;;;9.65;6.18;;;;;;;;;;5005447;28;20030;-82
2022/04/13 06:30:10;;;;;;;10.25;6.43;;;;;;;;;;5002481;28;20069;-86
2022/04/13 06:32:44;;;;;;;10.88;6.80;;;;;;;;;;5002612;28;20533;-86
2022/04/13 06:35:13;;;;;;;9.60;6.38;;;;;;;;;;5004690;28;20029;-81
2022/04/13 06:37:40;;;;;;;12.50;7.25;;;;;;;;;;5004591;28;20494;-81
2022/04/13 06:40:07;;;;;;;11.05;6.72;;;;;;;;;;5004933;28;20132;-82
2022/04/13 06:42:33;;;;;;;11.82;7.68;;;;;;;;;;5003452;28;20036;-80
2022/04/13 06:45:00;;;;;;;14.90;7.60;;;;;;;;;;5003898;28;20050;-86
2022/04/13 06:47:25;;;;;;;11.93;7.85;;;;;;;;;;5001111;28;20386;-81
2022/04/13 06:49:50;;;;;;;12.00;7.80;;;;;;;;;;5001752;28;20026;-87
2022/04/13 06:52:16;;;;;;;13.77;8.38;;;;;;;;;;5006732;28;20033;-87
2022/04/13 06:54:41;;;;;;;12.48;7.63;;;;;;;;;;5018698;28;20030;-86
2022/04/13 06:57:07;;;;;;;11.65;7.68;;;;;;;;;;5004381;28;20026;-87
2022/04/13 06:59:32;;;;;;;12.80;7.78;;;;;;;;;;5009376;28;20095;-85
2022/04/13 07:01:57;;;;;;;11.98;7.90;;;;;;;;;;5006297;28;20026;-86
2022/04/13 07:04:23;;;;;;;12.05;7.70;;;;;;;;;;5001032;28;20080;-87
2022/04/13 07:06:48;;;;;;;19.08;9.38;;;;;;;;;;5025082;28;20546;-81
2022/04/13 07:09:13;;;;;;;11.63;8.02;;;;;;;;;;5009561;28;20096;-86
2022/04/13 07:11:39;;;;;;;13.02;8.57;;;;;;;;;;5010602;28;20033;-81
2022/04/13 07:14:05;;;;;;;13.02;8.88;;;;;;;;;;5008104;28;20034;-81
2022/04/13 07:16:30;;;;;;;12.85;8.90;;;;;;;;;;5009584;28;20022;-81
2022/04/13 07:18:56;;;;;;;14.93;9.48;;;;;;;;;;5010758;28;20034;-87
2022/04/13 07:21:21;;;;;;;15.70;10.38;;;;;;;;;;5011978;28;20033;-87
2022/04/13 07:23:46;;;;;;;15.90;10.45;;;;;;;;;;5011372;28;20033;-86
2022/04/13 07:26:12;;;;;;;13.57;9.32;;;;;;;;;;5014476;28;20556;-86
2022/04/13 07:28:37;;;;;;;14.73;9.27;;;;;;;;;;5011933;28;20037;-87
2022/04/13 07:31:04;;;;;;;14.73;9.48;;;;;;;;;;5011525;28;20037;-85
2022/04/13 07:33:29;;;;;;;15.85;9.70;;;;;;;;;;5011178;28;20051;-80
2022/04/13 07:35:55;;;;;;;15.40;10.23;;;;;;;;;;5011395;28;20109;-79
2022/04/13 07:38:20;;;;;;;15.07;9.68;;;;;;;;;;5015809;28;20402;-79
2022/04/13 07:40:46;;;;;;;15.88;9.98;;;;;;;;;;5010895;28;20173;-80
2022/04/13 07:43:12;;;;;;;14.52;9.93;;;;;;;;;;5009184;28;20506;-87
2022/04/13 07:45:39;;;;;;;15.00;9.50;;;;;;;;;;5013587;28;20116;-86
2022/04/13 07:48:05;;;;;;;14.77;9.55;;;;;;;;;;5010990;28;20030;-86
2022/04/13 07:50:31;;;;;;;14.95;9.60;;;;;;;;;;5010056;28;20474;-81
2022/04/13 07:52:57;;;;;;;14.63;9.05;;;;;;;;;;5010087;28;20088;-80
2022/04/13 07:55:23;;;;;;;13.30;8.68;;;;;;;;;;5008776;28;20029;-81
2022/04/13 07:57:48;;;;;;;17.55;9.02;;;;;;;;;;5013142;28;20026;-81
2022/04/13 08:00:14;;;;;;;16.17;8.40;;;;;;;;;;5008648;28;20097;-80
2022/04/13 08:02:40;;;;;;;14.23;8.38;;;;;;;;;;5012725;28;20025;-87
2022/04/13 08:05:06;;;;;;;11.48;8.05;;;;;;;;;;5012671;28;20109;-86
2022/04/13 08:07:31;;;;;;;11.68;7.93;;;;;;;;;;5012152;28;20046;-81
2022/04/13 08:09:56;;;;;;;12.60;7.72;;;;;;;;;;5012177;28;20046;-81
2022/04/13 08:12:22;;;;;;;10.98;7.03;;;;;;;;;;5006014;28;20034;-84
2022/04/13 08:14:47;;;;;;;11.43;6.90;;;;;;;;;;5008884;28;20041;-81
2022/04/13 08:17:15;;;;;;;15.48;6.97;;;;;;;;;;5005018;28;20056;-82
2022/04/13 08:19:42;;;;;;;11.02;6.82;;;;;;;;;;5010349;28;20177;-84
2022/04/13 08:22:08;;;;;;;9.07;6.10;;;;;;;;;;5021791;28;20091;-79
2022/04/13 08:24:33;;;;;;;9.02;5.78;;;;;;;;;;5007486;28;20442;-79
2022/04/13 08:26:59;;;;;;;8.48;5.75;;;;;;;;;;5005745;28;20037;-87
2022/04/13 08:29:25;;;;;;;9.60;5.88;;;;;;;;;;5009891;28;20076;-86
2022/04/13 08:31:50;;;;;;;8.70;4.95;;;;;;;;;;5010059;28;20021;-81
2022/04/13 08:34:16;;;;;;;7.47;4.30;;;;;;;;;;5012125;28;20803;-84
2022/04/13 08:36:41;;;;;;;7.03;4.45;;;;;;;;;;5025570;28;20026;-83
2022/04/13 08:39:13;;;;;;;5.82;3.53;;;;;;;;;;5013870;28;20025;-83
2022/04/13 08:41:51;;;;;;;6.07;3.45;;;;;;;;;;5022084;28;20545;-81
2022/04/13 08:44:39;;;;;;;6.32;3.20;;;;;;;;;;5005640;28;20054;-84
2022/04/13 08:47:10;;;;;;;5.57;3.78;;;;;;;;;;5013822;28;20045;-87
2022/04/13 08:49:39;;;;;;;6.18;3.88;;;;;;;;;;5004140;28;20018;-79
2022/04/13 08:52:08;;;;;;;5.97;2.90;;;;;;;;;;5010799;28;20025;-85
2022/04/13 08:54:44;;;;;;;5.28;3.40;;;;;;;;;;5013753;28;20038;-80
2022/04/13 08:57:12;;;;;;;5.43;3.33;;;;;;;;;;5021727;28;20036;-86
2022/04/13 08:59:49;;;;;;;5.40;3.50;;;;;;;;;;5009530;28;20022;-80
2022/04/13 09:02:25;;;;;;;6.25;3.65;;;;;;;;;;5009046;28;20478;-80
2022/04/13 09:04:54;;;;;;;6.45;3.83;;;;;;;;;;5010081;28;20506;-79
2022/04/13 09:07:20;;;;;;;6.95;4.03;;;;;;;;;;5010261;28;20112;-80
2022/04/13 09:09:49;;;;;;;10.05;4.70;;;;;;;;;;5010626;28;20064;-79
2022/04/13 09:12:18;;;;;;;7.80;4.47;;;;;;;;;;5017619;28;20028;-85
2022/04/13 09:14:44;;;;;;;6.32;4.70;;;;;;;;;;5001963;28;20088;-80
2022/04/13 09:17:10;;;;;;;7.53;4.68;;;;;;;;;;5011853;28;20067;-79
2022/04/13 09:19:37;;;;;;;7.78;4.35;;;;;;;;;;5007442;28;20025;-79
2022/04/13 09:22:04;;;;;;;7.22;4.75;;;;;;;;;;5006134;28;20430;-80
2022/04/13 09:24:31;;;;;;;8.25;4.97;;;;;;;;;;5011322;28;20157;-80
2022/04/13 09:26:58;;;;;;;7.18;4.80;;;;;;;;;;5019221;28;20021;-81
2022/04/13 09:29:24;;;;;;;8.85;4.72;;;;;;;;;;5009438;28;20034;-86
2022/04/13 09:31:49;;;;;;;7.47;4.90;;;;;;;;;;5008121;28;20474;-80
2022/04/13 09:34:14;;;;;;;7.15;4.63;;;;;;;;;;5009166;28;20029;-85
2022/04/13 09:36:41;;;;;;;8.50;4.28;;;;;;;;;;5010256;28;20026;-85
2022/04/13 09:39:07;;;;;;;7.63;5.28;;;;;;;;;;5021702;28;20026;-80
2022/04/13 09:41:34;;;;;;;7.45;4.95;;;;;;;;;;5011250;28;20029;-79
2022/04/13 09:44:00;;;;;;;9.00;4.88;;;;;;;;;;5009342;28;20070;-81
2022/04/13 09:46:29;;;;;;;10.32;5.00;;;;;;;;;;5022426;28;20470;-80
2022/04/13 09:49:20;;;;;;;6.50;4.60;;;;;;;;;;5008940;28;20057;-81
2022/04/13 09:51:50;;;;;;;8.40;5.03;;;;;;;;;;5003801;28;20068;-80
2022/04/13 09:54:16;;;;;;;7.25;4.70;;;;;;;;;;5006718;28;20469;-82
2022/04/13 09:56:47;;;;;;;5.43;3.65;;;;;;;;;;5008139;28;20582;-85
2022/04/13 09:59:23;;;;;;;7.03;4.05;;;;;;;;;;5008650;28;20029;-80
2022/04/13 10:01:49;;;;;;;6.65;3.80;;;;;;;;;;5005784;28;20557;-85
2022/04/13 10:04:23;;;;;;;8.10;4.25;;;;;;;;;;5010085;28;20046;-86
2022/04/13 10:06:48;;;;;;;6.95;4.07;;;;;;;;;;5009987;28;20033;-82
2022/04/13 10:09:14;;;;;;;11.57;5.15;;;;;;;;;;5011747;28;20022;-85
2022/04/13 10:12:03;;;;;;;8.73;5.30;;;;;;;;;;5010013;28;20026;-80
2022/04/13 10:14:30;;;;;;;7.18;4.75;;;;;;;;;;5010187;28;20572;-82
2022/04/13 10:17:06;;;;;;;9.13;5.32;;;;;;;;;;5010541;28;20022;-85
2022/04/13 10:19:31;;;;;;;10.15;5.20;;;;;;;;;;5009736;28;20065;-81
2022/04/13 10:21:59;;;;;;;7.05;4.60;;;;;;;;;;5009844;28;20028;-86
2022/04/13 10:24:27;;;;;;;6.32;3.92;;;;;;;;;;5009411;28;20057;-80
2022/04/13 10:27:10;;;;;;;8.27;3.92;;;;;;;;;;5008322;28;20502;-85
2022/04/13 10:29:39;;;;;;;8.13;3.60;;;;;;;;;;5008764;28;20021;-84
2022/04/13 10:32:09;;;;;;;6.78;3.97;;;;;;;;;;5009719;28;20026;-84
2022/04/13 10:34:52;;;;;;;7.75;3.55;;;;;;;;;;5013087;28;20053;-78
2022/04/13 10:37:20;;;;;;;6.00;3.60;;;;;;;;;;5014639;28;20152;-85
2022/04/13 10:39:46;;;;;;;5.18;3.70;;;;;;;;;;5014609;28;20263;-84
2022/04/13 10:42:14;;;;;;;6.22;3.80;;;;;;;;;;5016941;28;20034;-79
2022/04/13 10:45:05;;;;;;;6.43;3.97;;;;;;;;;;5015004;28;20046;-84
2022/04/13 10:47:40;;;;;;;5.65;3.55;;;;;;;;;;5011799;28;20105;-79
2022/04/13 10:50:07;;;;;;;9.23;3.60;;;;;;;;;;5012591;28;20026;-84
2022/04/13 10:52:39;;;;;;;7.90;3.70;;;;;;;;;;5007684;28;20071;-85
2022/04/13 10:55:09;;;;;;;7.72;3.97;;;;;;;;;;5014663;28;20394;-85
2022/04/13 10:57:37;;;;;;;7.07;3.80;;;;;;;;;;5027585;28;20394;-84
2022/04/13 11:00:05;;;;;;;7.18;3.72;;;;;;;;;;5009703;28;20033;-84
2022/04/13 11:03:05;;;;;;;6.65;3.60;;;;;;;;;;5006909;28;20117;-85
2022/04/13 11:05:32;;;;;;;7.13;3.83;;;;;;;;;;5006341;28;20125;-79
2022/04/13 11:08:14;;;;;;;8.30;3.95;;;;;;;;;;5007579;28;20270;-79
2022/04/13 11:10:41;;;;;;;6.72;3.90;;;;;;;;;;5008757;28;20116;-79
2022/04/13 11:13:06;;;;;;;8.38;3.83;;;;;;;;;;5009804;28;20109;-83
2022/04/13 11:15:43;;;;;;;9.02;4.03;;;;;;;;;;5019711;28;20514;-78
2022/04/13 11:18:18;;;;;;;5.97;3.55;;;;;;;;;;5014661;28;20442;-81
2022/04/13 11:20:59;;;;;;;5.78;3.63;;;;;;;;;;5012934;28;20053;-79
2022/04/13 11:23:44;;;;;;;4.93;3.25;;;;;;;;;;5024538;28;20486;-86
2022/04/13 11:26:10;;;;;;;6.95;3.80;;;;;;;;;;5012880;28;20041;-78
2022/04/13 11:28:36;;;;;;;7.38;3.58;;;;;;;;;;5013005;28;20025;-85
2022/04/13 11:31:04;;;;;;;8.13;3.70;;;;;;;;;;5013448;28;20065;-84
2022/04/13 11:33:49;;;;;;;6.35;3.42;;;;;;;;;;5014435;28;20032;-85
2022/04/13 11:36:15;;;;;;;6.03;3.50;;;;;;;;;;5012378;28;20025;-79
2022/04/13 11:38:49;;;;;;;6.90;3.80;;;;;;;;;;5007620;28;20113;-85
2022/04/13 11:41:15;;;;;;;7.95;3.80;;;;;;;;;;5007131;28;20018;-84
2022/04/13 11:43:40;;;;;;;6.18;3.55;;;;;;;;;;5011215;28;20053;-83
2022/04/13 11:46:06;;;;;;;6.75;3.58;;;;;;;;;;5008845;28;20542;-78
2022/04/13 11:48:35;;;;;;;7.30;3.78;;;;;;;;;;5010909;28;20030;-83
2022/04/13 11:51:34;;;;;;;9.02;4.10;;;;;;;;;;5009667;28;20069;-78
2022/04/13 11:54:11;;;;;;;6.90;3.33;;;;;;;;;;5013398;28;20053;-83
2022/04/13 11:56:38;;;;;;;7.65;3.97;;;;;;;;;;5008809;28;20026;-78
2022/04/13 11:59:05;;;;;;;6.43;3.60;;;;;;;;;;5008756;28;20034;-83
2022/04/13 12:01:33;;;;;;;8.95;3.63;;;;;;;;;;5009489;28;20032;-82
2022/04/13 12:03:59;;;;;;;8.13;3.60;;;;;;;;;;5009998;28;20474;-83
2022/04/13 12:06:26;;;;;;;5.88;3.42;;;;;;;;;;5011573;28;20084;-79
2022/04/13 12:08:57;;;;;;;9.30;4.05;;;;;;;;;;5010695;28;20026;-78
2022/04/13 12:11:37;;;;;;;5.40;3.17;;;;;;;;;;5009640;28;20022;-79
2022/04/13 12:14:03;;;;;;;6.97;4.00;;;;;;;;;;5010122;28;20052;-79
2022/04/13 12:16:30;;;;;;;8.18;4.32;;;;;;;;;;5013192;28;20014;-79
2022/04/13 12:19:00;;;;;;;6.22;4.30;;;;;;;;;;5005924;28;20029;-78
2022/04/13 12:21:29;;;;;;;8.13;4.40;;;;;;;;;;5009974;28;20030;-82
2022/04/13 12:23:54;;;;;;;8.27;4.13;;;;;;;;;;5009935;28;20022;-77
2022/04/13 12:26:30;;;;;;;7.55;3.75;;;;;;;;;;5007862;28;20048;-83
2022/04/13 12:28:56;;;;;;;7.93;4.50;;;;;;;;;;5007049;28;20026;-77
2022/04/13 12:31:21;;;;;;;7.97;4.28;;;;;;;;;;5006654;28;20599;-82
2022/04/13 12:33:47;;;;;;;6.85;4.40;;;;;;;;;;5009895;28;20029;-78
2022/04/13 12:36:16;;;;;;;9.45;4.20;;;;;;;;;;5011121;28;20033;-79
2022/04/13 12:38:43;;;;;;;6.57;4.53;;;;;;;;;;5006976;28;20105;-82
2022/04/13 12:41:15;;;;;;;7.32;4.45;;;;;;;;;;5004591;28;20026;-78
2022/04/13 12:43:41;;;;;;;6.68;4.15;;;;;;;;;;5000169;28;20179;-79
2022/04/13 12:46:20;;;;;;;9.25;4.28;;;;;;;;;;5006209;28;20041;-82
2022/04/13 12:48:52;;;;;;;10.07;4.40;;;;;;;;;;4987712;28;20053;-77
2022/04/13 12:51:18;;;;;;;7.75;4.30;;;;;;;;;;5002967;28;20029;-79
2022/04/13 12:53:44;;;;;;;6.43;4.13;;;;;;;;;;5003731;28;20497;-80
2022/04/13 12:56:19;;;;;;;8.82;4.25;;;;;;;;;;5009536;28;20061;-83
2022/04/13 12:58:45;;;;;;;8.07;4.57;;;;;;;;;;5007184;28;20030;-78
2022/04/13 13:01:27;;;;;;;7.57;4.20;;;;;;;;;;5008678;28;20389;-79
2022/04/13 13:03:53;;;;;;;6.80;3.70;;;;;;;;;;5008194;28;20033;-80
2022/04/13 13:06:19;;;;;;;6.32;3.70;;;;;;;;;;5006803;28;20036;-81
2022/04/13 13:08:54;;;;;;;7.25;3.70;;;;;;;;;;5007370;28;20105;-79
2022/04/13 13:11:25;;;;;;;7.80;3.92;;;;;;;;;;5021199;28;20034;-83
2022/04/13 13:13:51;;;;;;;7.22;3.55;;;;;;;;;;5008341;28;20049;-83
2022/04/13 13:16:30;;;;;;;7.97;4.18;;;;;;;;;;5012567;28;20026;-83
2022/04/13 13:19:29;;;;;;;8.88;4.30;;;;;;;;;;5005813;28;20028;-78
2022/04/13 13:22:14;;;;;;;8.60;4.15;;;;;;;;;;5009076;28;20068;-82
2022/04/13 13:24:42;;;;;;;6.82;3.80;;;;;;;;;;5011524;28;20056;-79
2022/04/13 13:27:08;;;;;;;8.20;3.78;;;;;;;;;;5009906;28;20033;-82
2022/04/13 13:29:33;;;;;;;7.78;4.30;;;;;;;;;;5006144;28;20164;-81
2022/04/13 13:32:10;;;;;;;6.25;3.95;;;;;;;;;;5009645;28;20088;-79
2022/04/13 13:34:35;;;;;;;8.98;4.68;;;;;;;;;;5007236;28;20485;-85
2022/04/13 13:37:01;;;;;;;8.40;4.45;;;;;;;;;;5006365;28;20021;-80
2022/04/13 13:39:26;;;;;;;6.20;3.60;;;;;;;;;;5006077;28;20533;-86
2022/04/13 13:42:10;;;;;;;10.45;4.78;;;;;;;;;;5008126;28;20028;-88
2022/04/13 13:44:36;;;;;;;8.00;4.18;;;;;;;;;;5006081;28;20054;-80
2022/04/13 13:47:03;;;;;;;7.40;4.32;;;;;;;;;;5006376;28;20508;-81
2022/04/13 13:49:28;;;;;;;9.13;5.05;;;;;;;;;;5022508;28;20025;-87
2022/04/13 13:51:54;;;;;;;10.55;5.75;;;;;;;;;;5009692;28;20038;-87
2022/04/13 13:54:22;;;;;;;12.55;5.43;;;;;;;;;;5006685;28;20496;-81
2022/04/13 13:56:48;;;;;;;10.68;5.35;;;;;;;;;;5008154;28;20022;-82
2022/04/13 13:59:13;;;;;;;6.53;4.38;;;;;;;;;;5011628;28;20079;-82
2022/04/13 14:01:39;;;;;;;10.52;4.95;;;;;;;;;;5009683;28;20065;-83
2022/04/13 14:04:04;;;;;;;10.05;4.90;;;;;;;;;;5011844;28;20040;-89
2022/04/13 14:06:30;;;;;;;9.73;4.60;;;;;;;;;;5014217;28;20026;-83
2022/04/13 14:08:56;;;;;;;7.03;5.13;;;;;;;;;;5010111;28;20046;-83
2022/04/13 14:11:23;;;;;;;8.68;4.93;;;;;;;;;;5009894;28;20169;-88
2022/04/13 14:13:50;;;;;;;8.65;5.07;;;;;;;;;;5012527;28;20466;-90
2022/04/13 14:16:17;;;;;;;9.40;4.97;;;;;;;;;;5016622;28;20045;-84
2022/04/13 14:18:43;;;;;;;9.93;5.50;;;;;;;;;;5014749;28;20136;-83
2022/04/13 14:21:09;;;;;;;7.50;4.78;;;;;;;;;;5016526;28;20108;-87
2022/04/13 14:23:34;;;;;;;9.02;5.15;;;;;;;;;;5013307;28;20018;-87
2022/04/13 14:26:00;;;;;;;10.00;5.60;;;;;;;;;;5014394;28;20520;-89
2022/04/13 14:28:25;;;;;;;7.88;4.60;;;;;;;;;;5010732;28;20026;-83
2022/04/13 14:30:52;;;;;;;8.95;4.88;;;;;;;;;;5008126;28;20080;-88
2022/04/13 14:33:17;;;;;;;10.15;5.50;;;;;;;;;;5012863;28;20034;-83
2022/04/13 14:35:43;;;;;;;9.63;5.53;;;;;;;;;;5015235;28;20052;-88
2022/04/13 14:38:09;;;;;;;7.57;5.53;;;;;;;;;;5016260;28;20071;-89
2022/04/13 14:40:34;;;;;;;9.50;6.53;;;;;;;;;;5010495;28;20033;-87
2022/04/13 14:42:59;;;;;;;13.55;6.50;;;;;;;;;;5006690;28;20032;-82